createdAt,value
2023-01-23T00:01:23.331Z,1.60
2023-01-23T00:04:09.622Z,1.60
2023-01-23T00:06:43.185Z,1.60
2023-01-23T00:09:27.862Z,1.60
2023-01-23T00:11:59.971Z,1.60
2023-01-23T00:14:59.136Z,1.80
2023-01-23T00:17:55.052Z,1.60
2023-01-23T00:20:36.933Z,1.60
2023-01-23T00:23:24.285Z,1.60
2023-01-23T00:29:36.637Z,1.60
2023-01-23T00:32:42.775Z,1.70
2023-01-23T00:35:41.052Z,1.70
2023-01-23T00:38:32.176Z,1.60
2023-01-23T00:41:03.168Z,1.60
2023-01-23T00:43:53.979Z,1.60
2023-01-23T00:46:44.825Z,1.60
2023-01-23T00:49:41.311Z,1.60
2023-01-23T00:52:53.117Z,1.70
2023-01-23T00:55:46.703Z,1.60
2023-01-23T01:01:26.175Z,1.60
2023-01-23T01:04:02.079Z,1.60
2023-01-23T01:06:48.776Z,1.60
2023-01-23T01:09:30.880Z,1.70
2023-01-23T01:12:24.920Z,1.70
2023-01-23T01:15:06.347Z,1.60
2023-01-23T01:17:51.020Z,1.60
2023-01-23T01:20:30.673Z,1.70
2023-01-23T01:23:17.235Z,1.60
2023-01-23T01:26:22.524Z,1.70
2023-01-23T01:29:21.113Z,1.70
2023-01-23T01:32:09.793Z,1.70
2023-01-23T01:35:13.590Z,1.80
2023-01-23T01:40:42.855Z,1.70
2023-01-23T01:43:29.887Z,1.80
2023-01-23T01:49:44.831Z,1.90
2023-01-23T01:52:27.651Z,1.80
2023-01-23T01:55:04.326Z,1.70
2023-01-23T01:57:39.345Z,1.60
2023-01-23T02:00:33.329Z,1.60
2023-01-23T02:06:19.159Z,1.60
2023-01-23T02:09:09.921Z,1.60
2023-01-23T02:11:47.336Z,1.60
2023-01-23T02:14:33.611Z,1.60
2023-01-23T02:17:32.040Z,1.60
2023-01-23T02:20:16.539Z,1.50
2023-01-23T02:22:54.975Z,1.60
2023-01-23T02:25:32.579Z,1.70
2023-01-23T02:28:08.604Z,1.60
2023-01-23T02:30:42.436Z,1.50
2023-01-23T02:36:03.522Z,1.50
2023-01-23T02:38:37.703Z,1.60
2023-01-23T02:41:17.741Z,1.60
2023-01-23T02:44:31.164Z,1.60
2023-01-23T02:47:13.245Z,1.60
2023-01-23T02:49:45.084Z,1.60
2023-01-23T02:52:27.468Z,1.60
2023-01-23T02:55:03.167Z,1.60
2023-01-23T02:57:49.725Z,1.60
2023-01-23T03:00:28.443Z,1.50
2023-01-23T03:03:07.135Z,1.60
2023-01-23T03:05:41.740Z,1.50
2023-01-23T03:08:50.216Z,1.50
2023-01-23T03:11:23.803Z,1.50
2023-01-23T03:14:09.887Z,1.60
2023-01-23T03:16:54.171Z,1.50
2023-01-23T03:19:42.483Z,1.60
2023-01-23T03:22:25.723Z,1.60
2023-01-23T03:25:05.883Z,1.60
2023-01-23T03:27:47.656Z,1.60
2023-01-23T03:30:24.499Z,1.50
2023-01-23T03:33:16.603Z,1.60
2023-01-23T03:35:57.247Z,1.60
2023-01-23T03:38:48.154Z,1.50
2023-01-23T03:41:53.715Z,1.60
2023-01-23T03:44:30.054Z,1.50
2023-01-23T03:47:01.241Z,1.50
2023-01-23T03:49:43.322Z,1.50
2023-01-23T03:52:23.320Z,1.50
2023-01-23T03:54:53.885Z,1.60
2023-01-23T03:57:27.804Z,1.50
2023-01-23T04:00:01.563Z,1.50
2023-01-23T04:02:38.559Z,1.50
2023-01-23T04:05:17.591Z,1.50
2023-01-23T04:08:07.016Z,1.50
2023-01-23T04:10:40.178Z,1.40
2023-01-23T04:13:25.660Z,1.50
2023-01-23T04:16:10.993Z,1.50
2023-01-23T04:18:52.004Z,1.50
2023-01-23T04:21:24.815Z,1.50
2023-01-23T04:24:01.893Z,1.50
2023-01-23T04:27:01.581Z,1.50
2023-01-23T04:29:45.054Z,1.40
2023-01-23T04:32:18.046Z,1.50
2023-01-23T04:35:08.350Z,1.40
2023-01-23T04:37:45.993Z,1.40
2023-01-23T04:40:25.152Z,1.60
2023-01-23T04:43:11.698Z,1.50
2023-01-23T04:46:05.319Z,1.50
2023-01-23T04:48:58.678Z,1.50
2023-01-23T04:51:47.386Z,1.50
2023-01-23T04:54:21.123Z,1.50
2023-01-23T04:59:45.765Z,1.50
2023-01-23T05:02:17.511Z,1.50
2023-01-23T05:05:00.710Z,1.50
2023-01-23T05:07:42.527Z,1.60
2023-01-23T05:10:27.164Z,1.50
2023-01-23T05:13:17.116Z,1.50
2023-01-23T05:15:56.738Z,1.60
2023-01-23T05:18:32.764Z,1.50
2023-01-23T05:21:21.586Z,1.60
2023-01-23T05:24:00.129Z,1.60
2023-01-23T05:26:33.301Z,1.60
2023-01-23T05:29:05.427Z,1.60
2023-01-23T05:31:41.475Z,1.60
2023-01-23T05:34:20.764Z,1.60
2023-01-23T05:36:49.566Z,1.70
2023-01-23T05:39:21.419Z,1.60
2023-01-23T05:41:56.288Z,1.60
2023-01-23T05:44:46.546Z,1.50
2023-01-23T05:47:47.184Z,1.60
2023-01-23T05:50:28.601Z,1.60
2023-01-23T05:53:19.013Z,1.60
2023-01-23T05:56:05.726Z,1.50
2023-01-23T05:58:37.436Z,1.60
2023-01-23T06:01:15.167Z,1.60
2023-01-23T06:03:55.394Z,1.50
2023-01-23T06:06:45.421Z,1.60
2023-01-23T06:09:20.941Z,1.60
2023-01-23T06:11:57.101Z,1.60
2023-01-23T06:17:15.581Z,1.50
2023-01-23T06:19:59.041Z,1.60
2023-01-23T06:22:43.738Z,1.60
2023-01-23T06:25:15.970Z,1.50
2023-01-23T06:30:45.630Z,1.50
2023-01-23T06:33:25.139Z,1.50
2023-01-23T06:36:13.606Z,1.50
2023-01-23T06:38:51.110Z,1.50
2023-01-23T06:41:33.709Z,1.50
2023-01-23T06:44:22.976Z,1.60
2023-01-23T06:50:14.171Z,1.50
2023-01-23T06:52:55.814Z,1.50
2023-01-23T06:55:33.956Z,1.50
2023-01-23T06:58:05.992Z,1.60
2023-01-23T07:00:50.787Z,1.50
2023-01-23T07:03:34.120Z,1.50
2023-01-23T07:06:10.201Z,1.50
2023-01-23T07:08:41.011Z,1.50
2023-01-23T07:11:15.264Z,1.60
2023-01-23T07:13:59.710Z,1.50
2023-01-23T07:16:43.917Z,1.60
2023-01-23T07:19:15.771Z,1.60
2023-01-23T07:21:45.259Z,1.60
2023-01-23T07:24:16.770Z,1.60
2023-01-23T07:26:49.997Z,1.80
2023-01-23T07:29:24.441Z,1.80
2023-01-23T07:31:56.468Z,1.60
2023-01-23T07:34:28.796Z,1.70
2023-01-23T07:36:58.898Z,1.60
2023-01-23T07:39:34.234Z,1.60
2023-01-23T07:42:20.896Z,1.60
2023-01-23T07:44:57.809Z,1.70
2023-01-23T07:47:34.669Z,1.70
2023-01-23T07:50:12.420Z,1.70
2023-01-23T07:52:46.870Z,1.60
2023-01-23T07:55:17.650Z,1.70
2023-01-23T07:57:51.513Z,1.70
2023-01-23T08:00:26.118Z,1.70
2023-01-23T08:08:38.901Z,1.70
2023-01-23T08:11:19.752Z,1.70
2023-01-23T08:17:16.353Z,1.70
2023-01-23T08:20:01.192Z,1.70
2023-01-23T08:22:42.670Z,1.70
2023-01-23T08:25:16.014Z,1.60
2023-01-23T08:27:52.595Z,1.70
2023-01-23T08:30:33.875Z,1.70
2023-01-23T08:33:19.295Z,1.70
2023-01-23T08:36:05.508Z,1.70
2023-01-23T08:38:39.795Z,1.70
2023-01-23T08:43:59.330Z,1.70
2023-01-23T08:46:35.458Z,1.70
2023-01-23T08:49:39.451Z,1.70
2023-01-23T08:52:31.063Z,1.70
2023-01-23T08:55:06.368Z,1.70
2023-01-23T08:57:39.348Z,1.70
2023-01-23T09:00:14.733Z,1.70
2023-01-23T09:02:46.167Z,1.70
2023-01-23T09:08:12.537Z,1.80
2023-01-23T09:10:44.467Z,1.90
2023-01-23T09:13:18.236Z,1.90
2023-01-23T09:16:05.008Z,1.90
2023-01-23T09:18:42.054Z,2.00
2023-01-23T09:21:33.062Z,2.00
2023-01-23T09:24:22.791Z,2.00
2023-01-23T09:26:55.211Z,2.00
2023-01-23T09:29:27.695Z,2.00
2023-01-23T09:31:57.123Z,2.00
2023-01-23T09:34:42.230Z,2.10
2023-01-23T09:37:14.650Z,2.00
2023-01-23T09:39:46.959Z,2.10
2023-01-23T09:42:35.566Z,2.10
2023-01-23T09:45:17.324Z,2.00
2023-01-23T09:47:55.754Z,2.00
2023-01-23T09:50:30.387Z,2.10
2023-01-23T09:53:11.312Z,2.20
2023-01-23T09:55:50.636Z,2.00
2023-01-23T09:58:25.158Z,2.00
2023-01-23T10:01:25.200Z,2.10
2023-01-23T10:03:58.337Z,2.10
2023-01-23T10:06:30.372Z,2.00
2023-01-23T10:09:25.135Z,2.00
2023-01-23T10:21:06.633Z,2.20
2023-01-23T10:24:10.352Z,2.30
2023-01-23T10:29:43.043Z,2.30
2023-01-23T10:32:21.100Z,2.30
2023-01-23T10:34:59.431Z,2.30
2023-01-23T10:37:40.049Z,2.50
2023-01-23T10:40:28.092Z,2.40
2023-01-23T10:43:05.689Z,2.40
2023-01-23T10:45:44.686Z,2.40
2023-01-23T10:48:39.890Z,2.40
2023-01-23T10:51:46.921Z,2.30
2023-01-23T10:54:35.497Z,2.40
2023-01-23T10:57:17.108Z,2.40
2023-01-23T11:00:08.480Z,2.30
2023-01-23T11:02:58.525Z,2.20
2023-01-23T11:05:52.455Z,2.20
2023-01-23T11:08:33.748Z,2.20
2023-01-23T11:11:33.355Z,2.20
2023-01-23T11:14:24.406Z,2.30
2023-01-23T11:17:24.380Z,2.30
2023-01-23T11:20:00.366Z,2.40
2023-01-23T11:22:34.576Z,2.40
2023-01-23T11:25:56.174Z,2.30
2023-01-23T11:28:41.404Z,2.40
2023-01-23T11:31:19.469Z,2.40
2023-01-23T11:33:59.706Z,2.40
2023-01-23T11:37:01.716Z,2.30
2023-01-23T11:39:41.119Z,2.50
2023-01-23T11:42:17.375Z,2.30
2023-01-23T11:45:03.388Z,2.30
2023-01-23T11:47:56.830Z,2.40
2023-01-23T11:50:54.497Z,2.50
2023-01-23T11:53:42.971Z,2.40
2023-01-23T12:00:00.040Z,2.50
2023-01-23T12:03:12.283Z,2.60
2023-01-23T12:06:20.020Z,2.60
2023-01-23T12:09:09.845Z,2.60
2023-01-23T12:11:46.362Z,2.60
2023-01-23T12:14:31.826Z,2.50
2023-01-23T12:17:22.534Z,2.40
2023-01-23T12:20:23.519Z,2.50
2023-01-23T12:23:12.906Z,2.50
2023-01-23T12:25:50.564Z,2.40
2023-01-23T12:28:39.648Z,2.50
2023-01-23T12:31:24.529Z,2.50
2023-01-23T12:34:07.665Z,2.60
2023-01-23T12:40:07.789Z,2.50
2023-01-23T12:42:52.249Z,2.50
2023-01-23T12:45:27.835Z,2.60
2023-01-23T12:48:03.900Z,2.60
2023-01-23T12:50:37.644Z,2.50
2023-01-23T12:53:12.959Z,2.40
2023-01-23T12:55:48.030Z,2.50
2023-01-23T12:58:28.235Z,2.50
2023-01-23T13:01:07.474Z,2.40
2023-01-23T13:03:57.613Z,2.50
2023-01-23T13:06:49.409Z,2.50
2023-01-23T13:09:32.608Z,2.50
2023-01-23T13:15:54.041Z,2.60
2023-01-23T13:18:41.733Z,2.70
2023-01-23T13:21:30.546Z,2.60
2023-01-23T13:24:50.262Z,2.50
2023-01-23T13:27:52.821Z,2.50
2023-01-23T13:30:51.108Z,2.60
2023-01-23T13:34:10.155Z,2.60
2023-01-23T13:36:47.836Z,2.60
2023-01-23T13:39:28.587Z,2.60
2023-01-23T13:42:31.972Z,2.70
2023-01-23T13:45:41.966Z,2.70
2023-01-23T14:25:41.000Z,2.60
2023-01-23T14:28:24.462Z,2.60
2023-01-23T14:31:14.349Z,2.60
2023-01-23T14:33:58.992Z,2.60
2023-01-23T14:36:51.647Z,2.60
2023-01-23T14:45:02.960Z,2.60
2023-01-23T14:47:43.556Z,2.60
2023-01-23T14:50:38.539Z,2.50
2023-01-23T14:53:17.295Z,2.50
2023-01-23T14:55:51.611Z,2.60
2023-01-23T14:58:32.295Z,2.50
2023-01-23T15:01:16.621Z,2.40
2023-01-23T15:04:13.315Z,2.50
2023-01-23T15:06:46.785Z,2.50
2023-01-23T15:09:21.675Z,2.50
2023-01-23T15:11:58.933Z,2.40
2023-01-23T15:14:42.187Z,2.40
2023-01-23T15:17:16.861Z,2.30
2023-01-23T15:19:54.749Z,2.30
2023-01-23T15:22:39.638Z,2.40
2023-01-23T15:25:31.961Z,2.30
2023-01-23T15:28:13.799Z,2.30
2023-01-23T15:30:55.161Z,2.30
2023-01-23T15:33:44.555Z,2.30
2023-01-23T15:36:22.408Z,2.30
2023-01-23T15:39:21.879Z,2.30
2023-01-23T15:42:02.195Z,2.20
2023-01-23T15:44:33.872Z,2.20
2023-01-23T15:47:19.802Z,2.20
2023-01-23T15:50:03.489Z,2.20
2023-01-23T15:52:47.125Z,2.20
2023-01-23T15:55:41.715Z,2.20
2023-01-23T15:58:23.300Z,2.30
2023-01-23T16:01:06.558Z,2.30
2023-01-23T16:03:45.225Z,2.30
2023-01-23T16:06:30.028Z,2.20
2023-01-23T16:09:15.314Z,2.30
2023-01-23T16:11:47.555Z,2.30
2023-01-23T16:14:36.374Z,2.20
2023-01-23T16:20:05.214Z,2.20
2023-01-23T16:23:14.447Z,2.30
2023-01-23T16:25:47.092Z,2.30
2023-01-23T16:28:16.832Z,2.30
2023-01-23T16:31:05.938Z,2.20
2023-01-23T16:33:45.907Z,2.20
2023-01-23T16:36:41.560Z,2.20
2023-01-23T16:39:34.986Z,2.20
2023-01-23T16:42:21.468Z,2.20
2023-01-23T16:45:07.073Z,2.20
2023-01-23T16:47:52.939Z,2.20
2023-01-23T16:51:05.532Z,2.20
2023-01-23T16:53:42.887Z,2.10
2023-01-23T16:56:25.007Z,2.00
2023-01-23T16:58:54.053Z,2.10
2023-01-23T17:01:26.471Z,2.10
2023-01-23T17:04:03.206Z,2.10
2023-01-23T17:06:35.597Z,2.00
2023-01-23T17:09:14.091Z,2.00
2023-01-23T17:11:51.760Z,2.00
2023-01-23T17:14:23.954Z,2.10
2023-01-23T17:16:55.213Z,2.00
2023-01-23T17:19:49.411Z,2.10
2023-01-23T17:22:34.579Z,2.10
2023-01-23T17:25:08.968Z,2.10
2023-01-23T17:27:52.567Z,2.10
2023-01-23T17:30:30.066Z,2.10
2023-01-23T17:33:15.943Z,2.10
2023-01-23T17:36:18.595Z,2.10
2023-01-23T17:38:50.082Z,2.10
2023-01-23T17:41:24.616Z,2.10
2023-01-23T17:44:07.661Z,2.10
2023-01-23T17:46:54.799Z,2.10
2023-01-23T17:49:35.270Z,2.20
2023-01-23T17:52:09.376Z,2.20
2023-01-23T17:55:01.411Z,2.20
2023-01-23T17:57:45.056Z,2.20
2023-01-23T18:00:33.828Z,2.20
2023-01-23T18:03:16.754Z,2.20
2023-01-23T18:06:01.230Z,2.20
2023-01-23T18:08:47.011Z,2.10
2023-01-23T18:11:35.900Z,2.30
2023-01-23T18:14:34.897Z,2.10
2023-01-23T18:17:17.906Z,2.10
2023-01-23T18:20:04.968Z,2.10
2023-01-23T18:23:00.651Z,2.20
2023-01-23T18:25:32.647Z,2.10
2023-01-23T18:28:25.763Z,2.20
2023-01-23T18:31:29.292Z,2.20
2023-01-23T18:34:28.202Z,2.20
2023-01-23T18:40:22.400Z,2.30
2023-01-23T18:43:11.961Z,2.30
2023-01-23T18:45:58.802Z,2.20
2023-01-23T18:48:47.638Z,2.30
2023-01-23T18:51:40.612Z,2.20
2023-01-23T18:57:52.273Z,2.20
2023-01-23T19:03:45.460Z,2.20
2023-01-23T19:09:46.247Z,2.20
2023-01-23T19:12:47.240Z,2.20
2023-01-23T19:15:45.787Z,2.20
2023-01-23T19:22:02.851Z,2.20
2023-01-23T19:25:12.254Z,2.10
2023-01-23T19:27:56.080Z,2.10
2023-01-23T19:36:46.401Z,2.20
2023-01-23T19:39:46.655Z,2.20
2023-01-23T19:42:44.983Z,2.20
2023-01-23T19:51:35.566Z,2.10
2023-01-23T19:54:18.152Z,2.50
2023-01-23T19:59:38.963Z,2.30
2023-01-23T20:02:30.143Z,2.20
2023-01-23T20:05:19.467Z,2.10
2023-01-23T20:10:51.783Z,2.20
2023-01-23T20:13:26.376Z,2.20
2023-01-23T20:16:27.966Z,2.30
2023-01-23T20:19:03.933Z,2.20
2023-01-23T20:21:55.237Z,2.20
2023-01-23T20:24:39.841Z,2.10
2023-01-23T20:27:30.350Z,2.10
2023-01-23T20:30:26.200Z,2.20
2023-01-23T20:33:02.392Z,2.30
2023-01-23T20:35:46.054Z,2.20
2023-01-23T20:38:52.869Z,2.20
2023-01-23T20:42:04.868Z,2.20
2023-01-23T21:00:53.538Z,2.10
2023-01-23T21:10:02.847Z,2.10
2023-01-23T21:19:10.921Z,2.10
2023-01-23T21:24:35.763Z,2.20
2023-01-23T21:27:13.487Z,2.20
2023-01-23T21:36:25.958Z,2.10
2023-01-23T21:39:26.977Z,2.10
2023-01-23T21:42:17.694Z,2.20
2023-01-23T21:53:55.404Z,2.10
2023-01-23T22:00:03.189Z,2.10
2023-01-23T22:02:38.103Z,2.20
2023-01-23T22:05:41.835Z,2.10
2023-01-23T22:08:11.424Z,2.20
2023-01-23T22:10:44.409Z,2.10
2023-01-23T22:13:16.237Z,2.10
2023-01-23T22:15:51.661Z,2.20
2023-01-23T22:18:49.735Z,2.20
2023-01-23T22:21:39.152Z,2.10
2023-01-23T22:24:11.099Z,2.00
2023-01-23T22:26:48.721Z,2.20
2023-01-23T22:29:27.097Z,2.10
2023-01-23T22:32:03.952Z,2.20
2023-01-23T22:34:37.470Z,2.20
2023-01-23T22:40:05.303Z,2.10
2023-01-23T22:42:46.018Z,2.00
2023-01-23T22:45:29.417Z,1.90
2023-01-23T22:48:04.442Z,2.00
2023-01-23T22:50:36.798Z,2.10
2023-01-23T22:53:11.894Z,2.10
2023-01-23T22:55:45.519Z,2.10
2023-01-23T22:58:29.219Z,2.20
2023-01-23T23:13:46.621Z,2.10
2023-01-23T23:16:20.319Z,2.20
2023-01-23T23:18:58.193Z,2.20
2023-01-23T23:21:52.764Z,2.10
2023-01-23T23:27:41.042Z,2.10
2023-01-23T23:30:32.929Z,2.10
2023-01-23T23:33:05.293Z,2.00
2023-01-23T23:35:38.347Z,2.00
2023-01-23T23:38:11.561Z,2.00
2023-01-23T23:40:52.620Z,1.90
2023-01-23T23:49:15.202Z,1.90
2023-01-23T23:52:08.012Z,1.90
2023-01-23T23:54:49.871Z,1.90
2023-01-23T23:57:34.771Z,1.90
